Time;durP1;ratioP1;P1;durP2;ratioP2;P2;SDS_P1;SDS_P2;PMS_P1;PMS_P2;Temp;Humidity;BMP_temperature;BMP_pressure;BME280_temperature;BME280_humidity;BME280_pressure;Samples;Min_cycle;Max_cycle;Signal;HPM_P1;HPM_P2
2021/05/24 00:00:15;;;;;;;6.03;5.40;;;;;;;10.38;93.59;101021.41;3531899;40;20062;-57
2021/05/24 00:02:43;;;;;;;6.07;5.57;;;;;;;9.85;97.05;101017.09;3527873;40;20147;-57
2021/05/24 00:05:13;;;;;;;5.60;5.10;;;;;;;9.92;97.33;101027.56;3531705;40;20202;-55
2021/05/24 00:07:41;;;;;;;5.20;4.70;;;;;;;10.67;93.77;101024.88;3531779;40;20122;-57
2021/05/24 00:10:11;;;;;;;6.22;5.65;;;;;;;10.54;92.30;101020.22;3531839;40;20069;-52
2021/05/24 00:12:38;;;;;;;6.43;5.82;;;;;;;9.71;97.28;101011.50;3531767;40;20335;-56
2021/05/24 00:15:06;;;;;;;5.82;4.75;;;;;;;9.37;100.00;101017.09;3531692;40;20063;-53
2021/05/24 00:17:33;;;;;;;6.00;4.90;;;;;;;9.26;100.00;101014.19;3531440;40;20059;-57
2021/05/24 00:20:03;;;;;;;6.47;4.70;;;;;;;9.14;100.00;101009.47;3531748;40;20058;-56
2021/05/24 00:22:30;;;;;;;5.30;4.20;;;;;;;9.28;100.00;101004.88;3531700;40;20073;-53
2021/05/24 00:24:57;;;;;;;4.72;4.30;;;;;;;9.13;100.00;100992.41;3531391;40;20092;-56
2021/05/24 00:27:24;;;;;;;4.30;3.90;;;;;;;8.98;100.00;100994.41;3531619;40;20091;-57
2021/05/24 00:29:51;;;;;;;3.60;3.25;;;;;;;9.13;100.00;100989.84;3522749;40;20062;-56
2021/05/24 00:32:18;;;;;;;4.20;3.80;;;;;;;9.01;100.00;100998.75;3531710;40;20055;-55
2021/05/24 00:34:45;;;;;;;4.35;3.95;;;;;;;9.11;100.00;100985.53;3531687;40;20069;-57
2021/05/24 00:37:12;;;;;;;5.60;3.55;;;;;;;9.21;100.00;100985.03;3531400;40;20087;-51
2021/05/24 00:39:39;;;;;;;4.63;3.22;;;;;;;9.16;100.00;100986.56;3522415;40;20087;-55
2021/05/24 00:42:06;;;;;;;3.65;3.35;;;;;;;9.15;100.00;100980.59;3521896;40;20091;-53
2021/05/24 00:44:33;;;;;;;3.90;3.60;;;;;;;9.04;100.00;100976.75;3531232;40;20492;-54
2021/05/24 00:47:00;;;;;;;4.03;3.45;;;;;;;8.96;100.00;100965.38;3531645;40;20095;-54
2021/05/24 00:49:29;;;;;;;3.80;3.50;;;;;;;8.93;100.00;100970.41;3532735;40;20099;-52
2021/05/24 00:51:58;;;;;;;4.55;3.67;;;;;;;8.64;100.00;100961.63;3533118;40;20395;-52
2021/05/24 00:54:26;;;;;;;4.28;3.70;;;;;;;8.83;100.00;100958.97;3533041;40;20067;-56
2021/05/24 00:56:54;;;;;;;3.90;3.50;;;;;;;8.63;100.00;100957.34;3533281;40;20340;-55
2021/05/24 00:59:21;;;;;;;3.38;3.08;;;;;;;8.54;100.00;100957.00;3533033;40;20334;-56
2021/05/24 01:01:49;;;;;;;4.47;3.80;;;;;;;8.59;100.00;100953.81;3533199;40;20424;-56
2021/05/24 01:04:18;;;;;;;3.30;3.00;;;;;;;8.54;100.00;100949.34;3533160;40;20082;-54
2021/05/24 01:06:46;;;;;;;4.00;3.47;;;;;;;8.56;100.00;100951.16;3529001;40;20051;-57
2021/05/24 01:09:16;;;;;;;4.43;3.25;;;;;;;8.53;100.00;100945.91;3532834;40;20413;-55
2021/05/24 01:11:43;;;;;;;3.83;3.10;;;;;;;8.81;100.00;100946.94;3528654;40;20456;-53
2021/05/24 01:14:10;;;;;;;3.70;3.40;;;;;;;8.69;100.00;100949.94;3523835;40;20420;-55
2021/05/24 01:16:37;;;;;;;3.45;2.95;;;;;;;8.74;100.00;100945.00;3533108;40;20062;-53
2021/05/24 01:19:04;;;;;;;3.90;3.40;;;;;;;8.90;100.00;100943.03;3533220;40;20055;-52
2021/05/24 01:21:32;;;;;;;6.85;3.42;;;;;;;8.47;100.00;100942.28;3532650;40;20058;-57
2021/05/24 01:23:59;;;;;;;3.47;3.15;;;;;;;8.38;100.00;100941.09;3532903;40;20417;-55
2021/05/24 01:26:26;;;;;;;3.83;3.42;;;;;;;8.28;100.00;100949.19;3532539;40;20068;-55
2021/05/24 01:28:54;;;;;;;4.45;3.17;;;;;;;8.36;100.00;100942.72;3533094;40;20094;-54
2021/05/24 01:31:21;;;;;;;4.18;3.42;;;;;;;8.43;100.00;100946.38;3532794;40;20764;-51
2021/05/24 01:33:48;;;;;;;4.70;3.17;;;;;;;8.70;100.00;100944.00;3533142;40;20098;-52
2021/05/24 01:36:15;;;;;;;5.10;4.13;;;;;;;9.01;100.00;100952.78;3532531;40;20082;-52
2021/05/24 01:38:43;;;;;;;4.50;3.97;;;;;;;8.92;100.00;100956.75;3532458;40;20055;-58
2021/05/24 01:41:12;;;;;;;5.13;4.45;;;;;;;8.78;100.00;100962.16;3532675;40;20086;-56
2021/05/24 01:43:39;;;;;;;7.25;4.82;;;;;;;8.92;100.00;100956.75;3532330;40;20047;-51
2021/05/24 01:46:06;;;;;;;4.93;4.00;;;;;;;8.45;100.00;100942.19;3532539;40;20066;-54
2021/05/24 01:48:36;;;;;;;3.60;3.30;;;;;;;8.51;100.00;100947.56;3532345;40;20065;-52
2021/05/24 01:51:05;;;;;;;3.53;3.17;;;;;;;8.25;100.00;100948.19;3532413;40;20039;-54
2021/05/24 01:53:34;;;;;;;3.55;3.25;;;;;;;8.13;100.00;100946.91;3532421;40;20051;-56
2021/05/24 01:56:02;;;;;;;3.80;3.50;;;;;;;8.39;100.00;100940.28;3532537;40;20095;-54
2021/05/24 01:58:30;;;;;;;4.43;3.58;;;;;;;8.05;100.00;100940.63;3532954;40;20116;-54
2021/05/24 02:01:11;;;;;;;3.25;2.97;;;;;;;8.01;100.00;100943.88;3532614;40;20061;-55
2021/05/24 02:03:39;;;;;;;3.95;3.55;;;;;;;8.06;100.00;100933.84;3523435;40;20437;-54
2021/05/24 02:06:06;;;;;;;4.18;3.78;;;;;;;8.49;100.00;100946.63;3532434;40;20066;-54
2021/05/24 02:08:34;;;;;;;4.82;4.32;;;;;;;8.60;100.00;100944.50;3532413;40;20058;-55
2021/05/24 02:11:03;;;;;;;6.22;4.10;;;;;;;8.57;100.00;100940.13;3532401;40;20047;-53
2021/05/24 02:13:30;;;;;;;3.90;3.60;;;;;;;8.54;100.00;100934.03;3532265;40;20112;-56
2021/05/24 02:15:58;;;;;;;5.35;3.95;;;;;;;8.54;100.00;100946.78;3532178;40;20126;-56
2021/05/24 02:18:25;;;;;;;4.65;3.90;;;;;;;8.26;100.00;100938.03;3532030;40;20071;-54
2021/05/24 02:20:52;;;;;;;5.05;3.67;;;;;;;8.29;100.00;100932.19;3532639;40;20697;-52
2021/05/24 02:23:19;;;;;;;5.90;4.80;;;;;;;8.36;100.00;100935.06;3532849;40;20141;-56
2021/05/24 02:25:46;;;;;;;6.53;4.78;;;;;;;8.11;100.00;100929.78;3532289;40;20088;-55
2021/05/24 02:28:13;;;;;;;5.68;4.97;;;;;;;8.32;100.00;100928.09;3532290;40;20087;-56
2021/05/24 02:30:40;;;;;;;11.70;5.72;;;;;;;8.40;100.00;100934.38;3532441;40;20087;-53
2021/05/24 02:33:07;;;;;;;5.60;4.97;;;;;;;8.28;100.00;100927.91;3532291;40;20091;-53
2021/05/24 02:35:35;;;;;;;5.85;5.25;;;;;;;8.16;100.00;100923.19;3532050;40;20062;-54
2021/05/24 02:38:03;;;;;;;5.53;4.75;;;;;;;8.10;100.00;100928.94;3532744;40;20341;-55
2021/05/24 02:40:32;;;;;;;5.40;4.85;;;;;;;7.70;100.00;100925.59;3531946;40;20068;-55
2021/05/24 02:43:01;;;;;;;5.55;5.05;;;;;;;8.10;100.00;100916.19;3532339;40;20093;-56
2021/05/24 02:45:28;;;;;;;5.65;4.85;;;;;;;7.79;100.00;100919.19;3531993;40;20062;-56
2021/05/24 02:47:56;;;;;;;7.68;5.35;;;;;;;8.10;100.00;100921.28;3532192;40;20089;-53
2021/05/24 02:50:25;;;;;;;6.50;5.45;;;;;;;8.01;100.00;100915.81;3532264;40;20058;-54
2021/05/24 02:52:53;;;;;;;5.85;5.35;;;;;;;8.13;100.00;100923.97;3523128;40;20058;-54
2021/05/24 02:55:20;;;;;;;5.32;4.57;;;;;;;7.71;100.00;100910.34;3532617;40;20425;-55
2021/05/24 02:57:48;;;;;;;8.20;5.55;;;;;;;7.74;100.00;100914.72;3532482;40;20079;-56
2021/05/24 03:00:15;;;;;;;6.47;5.32;;;;;;;7.65;100.00;100923.72;3532542;40;20054;-56
2021/05/24 03:02:49;;;;;;;8.25;5.78;;;;;;;7.73;100.00;100928.28;3532237;40;20062;-54
2021/05/24 03:05:19;;;;;;;8.70;5.10;;;;;;;7.82;100.00;100913.34;3523216;40;20090;-53
2021/05/24 03:07:47;;;;;;;5.43;4.93;;;;;;;7.62;100.00;100920.16;3528226;40;20062;-56
2021/05/24 03:10:16;;;;;;;6.38;5.38;;;;;;;7.62;100.00;100921.03;3531814;40;20055;-55
2021/05/24 03:12:43;;;;;;;6.25;5.65;;;;;;;7.55;100.00;100916.50;3518816;40;20061;-57
2021/05/24 03:15:11;;;;;;;6.40;5.05;;;;;;;7.59;100.00;100920.06;3532205;40;20063;-52
2021/05/24 03:17:38;;;;;;;7.22;5.18;;;;;;;7.59;100.00;100925.16;3531853;40;20082;-56
2021/05/24 03:20:08;;;;;;;7.18;5.50;;;;;;;7.99;100.00;100926.75;3532263;40;20760;-53
2021/05/24 03:22:35;;;;;;;6.32;4.82;;;;;;;7.43;100.00;100928.72;3531681;40;20106;-53
2021/05/24 03:25:03;;;;;;;6.78;5.07;;;;;;;7.44;100.00;100924.50;3531834;40;20497;-56
2021/05/24 03:27:41;;;;;;;6.68;5.38;;;;;;;7.45;100.00;100923.72;3531875;40;20062;-53
2021/05/24 03:30:14;;;;;;;6.38;5.65;;;;;;;7.78;100.00;100926.78;3531944;40;20062;-54
2021/05/24 03:32:44;;;;;;;6.25;5.65;;;;;;;7.92;100.00;100925.66;3527765;40;22684;-57
2021/05/24 03:35:12;;;;;;;6.15;5.50;;;;;;;7.81;100.00;100927.78;3531714;40;20059;-53
2021/05/24 03:37:39;;;;;;;6.03;5.40;;;;;;;7.55;100.00;100931.78;3531402;40;20114;-53
2021/05/24 03:40:09;;;;;;;6.82;5.10;;;;;;;8.08;100.00;100933.09;3531835;40;20087;-51
2021/05/24 03:42:37;;;;;;;7.15;5.70;;;;;;;7.95;100.00;100940.19;3531537;40;20058;-54
2021/05/24 03:45:11;;;;;;;5.90;5.32;;;;;;;7.85;100.00;100931.28;3531669;40;20074;-52
2021/05/24 03:47:38;;;;;;;5.55;5.03;;;;;;;7.83;100.00;100926.16;3531710;40;20106;-52
2021/05/24 03:50:06;;;;;;;6.68;5.07;;;;;;;8.13;100.00;100929.06;3531824;40;20070;-53
2021/05/24 03:52:33;;;;;;;7.00;5.82;;;;;;;7.98;100.00;100937.75;3531762;40;20091;-54
2021/05/24 03:55:00;;;;;;;6.68;5.85;;;;;;;7.78;100.00;100935.28;3531790;40;20062;-53
2021/05/24 03:57:27;;;;;;;6.18;5.03;;;;;;;7.66;100.00;100932.22;3531623;40;20066;-53
2021/05/24 03:59:54;;;;;;;6.75;5.90;;;;;;;7.87;100.00;100927.16;3531570;40;20059;-51
2021/05/24 04:02:22;;;;;;;5.32;4.82;;;;;;;8.40;100.00;100924.16;3531886;40;20087;-55
2021/05/24 04:04:49;;;;;;;5.63;5.00;;;;;;;8.39;100.00;100927.53;3531537;40;20051;-52
2021/05/24 04:07:24;;;;;;;6.32;5.13;;;;;;;8.05;100.00;100919.38;3522151;40;20416;-50
2021/05/24 04:09:52;;;;;;;5.75;5.25;;;;;;;8.26;100.00;100925.28;3528223;40;20054;-55
2021/05/24 04:12:19;;;;;;;5.75;4.78;;;;;;;8.23;100.00;100922.63;3531659;40;20050;-55
2021/05/24 04:14:47;;;;;;;5.25;4.70;;;;;;;8.08;100.00;100924.56;3531671;40;20070;-53
2021/05/24 04:17:15;;;;;;;4.25;3.85;;;;;;;8.29;100.00;100924.53;3522473;40;20345;-52
2021/05/24 04:19:44;;;;;;;4.97;4.22;;;;;;;8.75;98.51;100928.88;3531580;40;20455;-55
2021/05/24 04:22:12;;;;;;;4.93;4.18;;;;;;;8.75;97.92;100932.28;3531831;40;20063;-55
2021/05/24 04:24:39;;;;;;;4.22;3.72;;;;;;;8.62;99.12;100936.06;3532846;40;20067;-52
2021/05/24 04:27:06;;;;;;;5.47;4.32;;;;;;;8.84;97.91;100941.97;3532887;40;20086;-53
2021/05/24 04:29:33;;;;;;;6.03;3.70;;;;;;;8.83;97.16;100945.34;3532935;40;20094;-52
2021/05/24 04:32:00;;;;;;;4.57;4.10;;;;;;;8.90;96.92;100945.59;3533117;40;20090;-53
2021/05/24 04:34:27;;;;;;;4.40;4.00;;;;;;;8.94;96.61;100936.38;3532983;40;20556;-55
2021/05/24 04:36:54;;;;;;;4.40;3.95;;;;;;;8.87;97.44;100940.41;3532954;40;20106;-53
2021/05/24 04:39:21;;;;;;;4.50;4.10;;;;;;;9.22;95.24;100932.25;3533099;40;20449;-57
2021/05/24 04:41:48;;;;;;;4.47;4.07;;;;;;;9.22;95.04;100932.25;3532698;40;20476;-55
2021/05/24 04:44:20;;;;;;;4.72;3.90;;;;;;;9.15;95.35;100932.03;3532679;40;20100;-54
2021/05/24 04:46:48;;;;;;;4.78;4.07;;;;;;;9.42;93.59;100928.69;3528860;40;20062;-52
2021/05/24 04:49:16;;;;;;;4.75;3.50;;;;;;;9.31;93.17;100927.47;3532872;40;20089;-55
2021/05/24 04:51:43;;;;;;;4.22;3.10;;;;;;;9.20;93.76;100922.00;3523921;40;20095;-54
2021/05/24 04:54:10;;;;;;;3.75;3.40;;;;;;;9.28;94.12;100925.66;3533258;40;20599;-54
2021/05/24 04:56:37;;;;;;;5.93;3.92;;;;;;;9.74;91.55;100921.22;3532651;40;20336;-53
2021/05/24 04:59:04;;;;;;;3.95;3.38;;;;;;;9.83;91.18;100921.53;3532908;40;20114;-53
2021/05/24 05:01:32;;;;;;;5.03;3.58;;;;;;;9.89;90.70;100926.81;3532584;40;20067;-57
2021/05/24 05:03:59;;;;;;;3.95;3.15;;;;;;;9.90;90.41;100926.03;3532799;40;20069;-54
2021/05/24 05:06:26;;;;;;;3.67;3.15;;;;;;;10.09;89.12;100924.91;3523748;40;20058;-54
2021/05/24 05:08:53;;;;;;;3.75;3.03;;;;;;;10.22;89.05;100923.63;3533159;40;20093;-50
2021/05/24 05:11:20;;;;;;;3.60;3.30;;;;;;;10.16;88.13;100932.81;3532569;40;20082;-54
2021/05/24 05:13:47;;;;;;;3.28;2.97;;;;;;;10.24;87.88;100935.66;3532601;40;20139;-52
2021/05/24 05:16:14;;;;;;;3.10;2.80;;;;;;;10.42;86.78;100945.59;3532714;40;20070;-53
2021/05/24 05:18:42;;;;;;;3.88;2.90;;;;;;;10.47;86.00;100943.16;3532601;40;20062;-51
2021/05/24 05:21:09;;;;;;;4.10;3.38;;;;;;;10.68;86.91;100937.00;3532428;40;20401;-54
2021/05/24 05:23:38;;;;;;;4.50;2.95;;;;;;;10.69;87.43;100946.41;3532571;40;20058;-51
2021/05/24 05:26:05;;;;;;;4.10;3.03;;;;;;;10.93;85.46;100945.38;3532541;40;20058;-52
2021/05/24 05:28:32;;;;;;;3.17;2.75;;;;;;;11.01;84.46;100951.59;3532518;40;20481;-55
2021/05/24 05:30:59;;;;;;;3.33;2.67;;;;;;;11.11;84.80;100950.16;3532738;40;20086;-53
2021/05/24 05:33:26;;;;;;;4.22;2.72;;;;;;;11.07;83.94;100949.19;3532500;40;20483;-57
2021/05/24 05:35:57;;;;;;;3.42;2.83;;;;;;;11.14;83.45;100951.09;3523912;40;20444;-56
2021/05/24 05:38:26;;;;;;;4.28;2.88;;;;;;;11.37;85.34;100958.53;3532829;40;20058;-52
2021/05/24 05:40:53;;;;;;;3.33;2.63;;;;;;;11.58;82.69;100958.25;3532573;40;20436;-51
2021/05/24 05:43:20;;;;;;;4.07;2.72;;;;;;;11.75;81.24;100969.81;3532541;40;20038;-55
2021/05/24 05:45:48;;;;;;;2.90;2.40;;;;;;;11.97;80.48;100966.97;3532552;40;20090;-52
2021/05/24 05:48:15;;;;;;;2.65;2.38;;;;;;;12.00;82.28;100962.75;3532477;40;20074;-56
2021/05/24 05:50:43;;;;;;;2.53;2.03;;;;;;;12.08;80.73;100951.81;3532412;40;20432;-53
2021/05/24 05:53:10;;;;;;;2.60;1.98;;;;;;;12.22;78.69;100950.44;3532205;40;20114;-57
2021/05/24 05:55:37;;;;;;;3.67;2.08;;;;;;;12.38;80.50;100948.22;3531988;40;20087;-51
2021/05/24 05:58:04;;;;;;;3.58;2.22;;;;;;;12.54;77.70;100952.00;3532404;40;20062;-54
2021/05/24 06:00:31;;;;;;;2.65;2.38;;;;;;;12.58;76.28;100966.66;3531832;40;20050;-55
2021/05/24 06:02:58;;;;;;;2.78;2.03;;;;;;;12.58;76.97;100971.78;3532528;40;20351;-50
2021/05/24 06:05:25;;;;;;;2.92;1.88;;;;;;;12.67;75.57;100967.72;3532217;40;20083;-54
2021/05/24 06:07:52;;;;;;;2.63;2.38;;;;;;;12.78;76.08;100961.94;3532770;40;20047;-53
2021/05/24 06:10:19;;;;;;;2.97;2.30;;;;;;;13.11;75.73;100965.19;3532352;40;20062;-53
2021/05/24 06:12:48;;;;;;;3.90;1.67;;;;;;;13.17;75.49;100967.00;3532455;40;20066;-55
2021/05/24 06:15:17;;;;;;;1.90;1.80;;;;;;;13.22;74.57;100966.31;3532321;40;20273;-51
2021/05/24 06:17:45;;;;;;;2.60;1.90;;;;;;;13.40;70.91;100959.75;3529339;40;20533;-53
2021/05/24 06:20:13;;;;;;;2.13;1.90;;;;;;;13.59;73.93;100959.28;3532111;40;20324;-55
2021/05/24 06:22:40;;;;;;;3.85;1.73;;;;;;;13.80;73.21;100955.31;3531958;40;20480;-54
2021/05/24 06:25:08;;;;;;;4.75;1.60;;;;;;;13.94;72.83;100962.44;3532325;40;20729;-52
2021/05/24 06:27:36;;;;;;;1.40;1.27;;;;;;;13.75;70.53;100958.69;3532273;40;20075;-52
2021/05/24 06:30:05;;;;;;;2.25;1.35;;;;;;;13.97;72.46;100962.50;3532225;40;20143;-53
2021/05/24 06:32:32;;;;;;;2.95;1.20;;;;;;;13.98;67.38;100960.78;3530482;40;20078;-56
2021/05/24 06:35:00;;;;;;;3.33;1.60;;;;;;;14.10;66.71;100966.13;3532295;40;20376;-55
2021/05/24 06:37:27;;;;;;;4.68;1.58;;;;;;;14.33;68.88;100968.16;3532233;40;20077;-53
2021/05/24 06:39:54;;;;;;;2.10;1.17;;;;;;;14.46;66.21;100965.78;3532501;40;20058;-51
2021/05/24 06:42:22;;;;;;;2.92;1.63;;;;;;;14.56;66.35;100958.22;3532206;40;20063;-56
2021/05/24 06:44:50;;;;;;;2.28;1.40;;;;;;;14.63;65.95;100978.09;3532153;40;20404;-58
2021/05/24 06:47:17;;;;;;;3.90;1.33;;;;;;;14.55;65.21;100961.66;3532258;40;20071;-56
2021/05/24 06:49:44;;;;;;;2.10;1.15;;;;;;;14.70;64.14;100967.03;3529263;40;20062;-56
2021/05/24 06:52:11;;;;;;;2.90;1.25;;;;;;;14.76;62.38;100961.94;3523324;40;20069;-54
2021/05/24 06:54:38;;;;;;;1.63;1.25;;;;;;;15.18;63.86;100963.31;3532498;40;20095;-51
2021/05/24 06:57:06;;;;;;;1.25;1.05;;;;;;;15.49;63.27;100965.38;3531911;40;20206;-54
2021/05/24 06:59:35;;;;;;;2.05;1.40;;;;;;;15.61;61.42;100953.41;3531409;40;20107;-58
2021/05/24 07:02:02;;;;;;;1.38;1.17;;;;;;;15.85;61.34;100948.47;3531953;40;20066;-52
2021/05/24 07:04:29;;;;;;;1.98;1.30;;;;;;;15.97;60.18;100958.06;3532133;40;20062;-57
2021/05/24 07:06:56;;;;;;;2.17;1.20;;;;;;;16.28;59.85;100959.16;3532228;40;20428;-54
2021/05/24 07:09:24;;;;;;;2.92;1.00;;;;;;;16.44;57.95;100953.22;3532327;40;20336;-52
2021/05/24 07:11:51;;;;;;;1.83;0.80;;;;;;;16.22;55.42;100951.34;3532195;40;20047;-52
2021/05/24 07:14:18;;;;;;;4.88;1.25;;;;;;;16.71;57.68;100964.56;3532206;40;20469;-57
2021/05/24 07:16:45;;;;;;;1.77;1.10;;;;;;;16.91;56.42;100952.59;3529282;40;20126;-58
2021/05/24 07:19:12;;;;;;;1.58;0.90;;;;;;;17.11;56.47;100949.25;3533092;40;20078;-55
2021/05/24 07:21:39;;;;;;;2.25;0.90;;;;;;;17.34;54.38;100939.81;3532243;40;20057;-54
2021/05/24 07:24:06;;;;;;;1.13;0.70;;;;;;;17.85;52.66;100922.63;3532247;40;20401;-56
2021/05/24 07:26:54;;;;;;;3.92;0.88;;;;;;;17.64;49.48;100920.00;3529914;40;20412;-54
2021/05/24 07:29:21;;;;;;;1.23;0.80;;;;;;;17.23;50.52;100919.06;3531918;40;20244;-52
2021/05/24 07:31:48;;;;;;;1.25;0.70;;;;;;;17.20;52.61;100915.63;3532045;40;20090;-57
2021/05/24 07:34:15;;;;;;;1.10;1.00;;;;;;;17.95;48.86;100915.69;3532299;40;20365;-53
2021/05/24 07:36:42;;;;;;;1.83;0.60;;;;;;;17.60;49.20;100913.94;3531769;40;20411;-51
2021/05/24 07:39:09;;;;;;;1.48;0.80;;;;;;;17.75;52.00;100918.31;3531606;40;20090;-54
2021/05/24 07:41:37;;;;;;;1.23;0.70;;;;;;;17.82;48.81;100920.03;3531033;40;20118;-58
2021/05/24 07:44:05;;;;;;;2.45;0.70;;;;;;;17.55;49.46;100908.75;3530820;40;20094;-54
2021/05/24 07:46:33;;;;;;;1.42;1.02;;;;;;;17.55;49.68;100913.94;3526176;40;20087;-56
2021/05/24 07:49:00;;;;;;;1.23;0.55;;;;;;;17.39;49.27;100899.25;3531042;40;20081;-55
2021/05/24 07:51:27;;;;;;;3.50;0.55;;;;;;;17.50;48.56;100905.31;3531054;40;20312;-55
2021/05/24 07:53:54;;;;;;;2.20;0.70;;;;;;;17.37;48.88;100898.38;3531209;40;20066;-57
2021/05/24 07:56:21;;;;;;;0.80;0.50;;;;;;;17.88;51.81;100886.31;3531383;40;20081;-56
2021/05/24 07:58:48;;;;;;;1.13;0.77;;;;;;;17.90;49.65;100889.78;3531741;40;20110;-53
2021/05/24 08:01:15;;;;;;;4.03;0.95;;;;;;;17.85;48.09;100885.50;3531558;40;20079;-56
2021/05/24 08:03:42;;;;;;;0.63;0.57;;;;;;;18.02;46.97;100883.72;3531484;40;20368;-56
2021/05/24 08:06:09;;;;;;;1.55;0.45;;;;;;;18.03;44.88;100888.06;3531326;40;20086;-56
2021/05/24 08:08:36;;;;;;;1.40;0.57;;;;;;;18.12;45.64;100893.22;3531613;40;20095;-56
2021/05/24 08:11:11;;;;;;;0.50;0.50;;;;;;;18.38;43.67;100893.13;3531636;40;20047;-55
2021/05/24 08:13:38;;;;;;;2.08;0.60;;;;;;;18.65;43.73;100883.53;3531531;40;20061;-53
2021/05/24 08:16:06;;;;;;;1.20;0.40;;;;;;;19.53;43.40;100890.81;3531633;40;20425;-54
2021/05/24 08:18:33;;;;;;;0.68;0.60;;;;;;;20.50;40.05;100892.50;3531799;40;20306;-56
2021/05/24 08:21:01;;;;;;;0.52;0.47;;;;;;;21.56;38.56;100891.91;3531805;40;20039;-52
2021/05/24 08:23:38;;;;;;;1.70;0.60;;;;;;;20.56;40.25;100888.06;3531370;40;20074;-54
2021/05/24 08:26:06;;;;;;;1.75;0.75;;;;;;;20.23;39.80;100884.09;3531342;40;20591;-57
2021/05/24 08:28:33;;;;;;;1.30;0.47;;;;;;;20.38;41.31;100877.00;3531560;40;20606;-54
2021/05/24 08:31:00;;;;;;;1.65;0.80;;;;;;;20.14;41.85;100879.00;3531373;40;20051;-55
2021/05/24 08:33:30;;;;;;;1.48;0.40;;;;;;;19.66;42.06;100875.16;3531346;40;20057;-54
2021/05/24 08:35:58;;;;;;;0.57;0.35;;;;;;;18.83;40.79;100860.13;3531438;40;20067;-55
2021/05/24 08:38:25;;;;;;;1.30;0.70;;;;;;;18.55;42.86;100865.41;3531716;40;20058;-55
2021/05/24 08:40:52;;;;;;;1.45;1.35;;;;;;;18.80;44.67;100867.91;3531165;40;20404;-58
2021/05/24 08:43:19;;;;;;;1.50;1.20;;;;;;;19.34;41.98;100866.72;3531275;40;20424;-55
2021/05/24 08:45:46;;;;;;;1.10;0.60;;;;;;;18.82;41.91;100861.00;3530987;40;20098;-57
2021/05/24 08:48:13;;;;;;;1.35;0.50;;;;;;;18.86;42.61;100851.44;3522107;40;20428;-52
2021/05/24 08:50:41;;;;;;;1.65;0.50;;;;;;;18.66;42.83;100857.56;3531169;40;20075;-53
2021/05/24 08:53:10;;;;;;;0.85;0.50;;;;;;;18.82;42.33;100848.03;3531532;40;20322;-53
2021/05/24 08:55:37;;;;;;;4.95;1.50;;;;;;;19.10;40.35;100834.88;3531205;40;20114;-52
2021/05/24 08:58:08;;;;;;;2.78;0.60;;;;;;;19.44;39.67;100843.25;3531283;40;20077;-54
2021/05/24 09:00:36;;;;;;;2.00;0.63;;;;;;;19.79;40.23;100836.06;3531120;40;20055;-52
2021/05/24 09:03:03;;;;;;;1.73;0.55;;;;;;;19.72;40.00;100833.50;3531417;40;20162;-57
2021/05/24 09:05:33;;;;;;;1.30;0.40;;;;;;;20.29;38.61;100852.84;3530586;40;20067;-54
2021/05/24 09:08:03;;;;;;;2.15;0.50;;;;;;;20.17;38.71;100841.72;3531277;40;20058;-53
2021/05/24 09:10:31;;;;;;;1.05;0.60;;;;;;;20.33;38.70;100830.22;3532438;40;20070;-55
2021/05/24 09:12:58;;;;;;;1.98;0.70;;;;;;;20.41;38.19;100828.41;3532771;40;20047;-54
2021/05/24 09:15:26;;;;;;;0.60;0.60;;;;;;;20.49;39.25;100815.34;3532759;40;20042;-54
2021/05/24 09:17:57;;;;;;;1.38;0.50;;;;;;;20.98;36.78;100831.09;3532945;40;20336;-56
2021/05/24 09:20:24;;;;;;;1.88;0.65;;;;;;;21.64;38.13;100837.06;3532652;40;20126;-55
2021/05/24 09:23:10;;;;;;;2.30;0.50;;;;;;;21.39;36.54;100823.56;3532596;40;20674;-52
2021/05/24 09:26:07;;;;;;;1.77;0.60;;;;;;;20.30;37.69;100833.75;3532133;40;20097;-57
2021/05/24 09:28:42;;;;;;;1.33;0.75;;;;;;;20.66;38.24;100843.72;3532297;40;20074;-54
2021/05/24 09:31:19;;;;;;;2.38;0.50;;;;;;;20.61;39.49;100833.38;3532007;40;20111;-55
2021/05/24 09:33:53;;;;;;;1.65;0.50;;;;;;;20.68;38.76;100840.22;3529644;40;20078;-53
2021/05/24 09:36:21;;;;;;;1.13;0.63;;;;;;;20.89;39.42;100828.69;3532574;40;20068;-54
2021/05/24 09:38:51;;;;;;;4.05;0.82;;;;;;;21.22;38.26;100824.69;3530048;40;20073;-52
2021/05/24 09:41:21;;;;;;;1.58;0.80;;;;;;;21.24;38.66;100815.09;3527186;40;20289;-56
2021/05/24 09:43:52;;;;;;;0.47;0.40;;;;;;;21.56;37.82;100821.53;3528443;40;20514;-57
2021/05/24 09:46:24;;;;;;;1.58;0.50;;;;;;;21.27;37.95;100801.16;3531711;40;20057;-55
2021/05/24 09:49:01;;;;;;;1.42;0.60;;;;;;;21.27;38.00;100811.59;3532677;40;20050;-55
2021/05/24 09:51:33;;;;;;;1.92;0.60;;;;;;;21.19;39.64;100808.25;3532321;40;20066;-58
2021/05/24 09:54:09;;;;;;;2.28;0.80;;;;;;;21.25;40.25;100797.72;3532653;40;20055;-54
2021/05/24 09:56:38;;;;;;;;;;;;;;;21.67;37.29;100806.56;3532898;40;20054;-54
2021/05/24 09:59:13;;;;;;;0.57;0.30;;;;;;;21.74;38.62;100799.50;3530181;40;19994;-58
2021/05/24 10:01:44;;;;;;;0.63;0.60;;;;;;;21.94;37.29;100802.56;3531552;40;20084;-57
2021/05/24 10:04:16;;;;;;;0.63;0.40;;;;;;;22.78;37.19;100789.53;3531754;40;20065;-55
2021/05/24 10:06:44;;;;;;;1.55;0.82;;;;;;;24.37;32.93;100794.13;3528394;40;20047;-55
2021/05/24 10:09:13;;;;;;;1.17;0.60;;;;;;;26.87;30.67;100793.31;3530830;40;20103;-58
2021/05/24 10:11:43;;;;;;;2.10;0.60;;;;;;;25.61;30.30;100776.16;3531298;40;20051;-54
2021/05/24 10:14:16;;;;;;;2.22;0.75;;;;;;;24.94;30.69;100781.00;3531564;40;20087;-54
2021/05/24 10:16:50;;;;;;;1.80;0.82;;;;;;;22.86;35.28;100770.16;3528925;40;20063;-56
2021/05/24 10:19:19;;;;;;;1.95;0.50;;;;;;;23.54;32.82;100766.75;3531359;40;20095;-57
2021/05/24 10:21:51;;;;;;;1.42;0.63;;;;;;;25.26;32.21;100772.13;3528292;40;20549;-55
2021/05/24 10:24:24;;;;;;;0.55;0.50;;;;;;;25.87;29.22;100770.00;3532291;40;20435;-56
2021/05/24 10:26:56;;;;;;;3.28;0.50;;;;;;;25.43;30.43;100755.81;3530091;40;20058;-56
2021/05/24 10:29:25;;;;;;;0.75;0.50;;;;;;;25.01;31.87;100751.94;3532665;40;20073;-57
2021/05/24 10:31:52;;;;;;;1.60;0.50;;;;;;;25.63;30.45;100753.34;3532390;40;20073;-57
2021/05/24 10:34:24;;;;;;;1.70;0.60;;;;;;;27.19;27.58;100760.47;3532388;40;20051;-52
2021/05/24 10:37:13;;;;;;;2.10;0.60;;;;;;;28.36;24.65;100757.03;3532402;40;20083;-57
2021/05/24 10:40:01;;;;;;;0.95;0.50;;;;;;;26.69;28.15;100762.53;3531085;40;20051;-55
2021/05/24 10:42:40;;;;;;;0.90;0.50;;;;;;;28.16;26.53;100754.47;3531575;40;20061;-59
2021/05/24 10:45:17;;;;;;;1.48;0.52;;;;;;;27.57;25.71;100739.56;3531957;40;20618;-59
2021/05/24 10:48:01;;;;;;;1.25;0.50;;;;;;;29.13;23.70;100735.72;3528810;40;20050;-54
2021/05/24 10:50:30;;;;;;;2.88;0.70;;;;;;;29.66;23.26;100733.88;3531953;40;20598;-55
2021/05/24 10:53:06;;;;;;;2.22;0.68;;;;;;;31.40;23.44;100728.44;3532157;40;20091;-59
2021/05/24 10:55:44;;;;;;;1.40;0.73;;;;;;;27.67;26.75;100704.00;3524474;40;20054;-57
2021/05/24 10:58:11;;;;;;;1.38;0.80;;;;;;;29.05;24.61;100703.59;3532445;40;20104;-57
2021/05/24 11:00:47;;;;;;;0.98;0.60;;;;;;;31.01;21.91;100706.03;3532226;40;20330;-57
2021/05/24 11:03:14;;;;;;;1.48;0.70;;;;;;;32.41;22.10;100717.69;3532194;40;20144;-57
2021/05/24 11:05:45;;;;;;;3.03;0.75;;;;;;;27.72;26.81;100694.16;3532292;40;20059;-54
2021/05/24 11:08:25;;;;;;;1.15;0.65;;;;;;;28.03;26.91;100680.44;3532363;40;20069;-56
2021/05/24 11:10:53;;;;;;;2.22;0.90;;;;;;;29.87;24.48;100693.13;3529875;40;20421;-55
2021/05/24 11:13:22;;;;;;;3.22;0.85;;;;;;;32.63;19.87;100685.31;3532050;40;20601;-57
2021/05/24 11:15:50;;;;;;;1.88;0.70;;;;;;;29.88;24.43;100686.91;3532262;40;20073;-60
2021/05/24 11:18:22;;;;;;;1.10;0.50;;;;;;;31.46;22.46;100685.72;3532386;40;20081;-57
2021/05/24 11:21:15;;;;;;;1.85;0.57;;;;;;;27.21;27.49;100679.75;3529333;40;20117;-56
2021/05/24 11:29:09;;;;;;;1.67;0.60;;;;;;;28.23;25.31;100658.41;3532214;40;20058;-60
2021/05/24 11:31:36;;;;;;;0.93;0.63;;;;;;;28.76;25.88;100648.84;3531571;40;20058;-56
2021/05/24 11:34:05;;;;;;;1.15;0.85;;;;;;;31.94;22.90;100651.84;3532241;40;20058;-56
2021/05/24 11:36:35;;;;;;;1.65;0.80;;;;;;;33.00;18.67;100652.78;3532683;40;20051;-58
2021/05/24 11:39:12;;;;;;;4.53;0.95;;;;;;;29.73;23.41;100642.88;3533371;40;20073;-58